Airfield :
LOGIN :

Register | Disclaimer

   EN    FR    IT 

 










Legend :    VFR   Marginal VFR   IFR   Intensive IFR   Very Intensive IFR
Visi :
Ceiling :
>= 8 km
>= 3000ft
5 to 8 km
1000 to 3000 ft
1500m to 5 km
500 to 1000 ft
800 to 1500m
200 to 500 ft
< 800m
< 200 ft
Symbols :   Thunderstorms  Fog  Heavy snow  Heavy precipitations  Wind > 20 kt
SIGMETs :     Misc.  Thunderstorms  Icing  Turbulence  Mountain Waves  Volcanic Ashes






- Airport Elevation : 124 ft
- IATA code : NHT


EGWU - RAF Northolt

CURRENT METAR :
  • 172350Z AUTO 03008KT 2700 // OVC004/// 07/07 Q1013

EXPIRED METARs :
  • 172250Z AUTO 02002KT 5000 // OVC005/// 06/06 Q1013
  • 172150Z AUTO 32002KT 4300 // BKN007/// 05/05 Q1012

TAF AMD TAF EGWU
Valid from the 17 at 18:00 until the 18 at 12:00 UTC


171730Z 1718/1812 01004KT 9999 FEW012
BECMG 1718/1721 6000 BR BKN012
BECMG 1721/1723 3000 -RADZ BKN004
TEMPO 1723/1804 1200 RADZ OVC001
BECMG 1804/1806 9999 NSW BKN008
PROB40
TEMPO 1806/1809 FEW008 SCT030
BECMG 1809/1812 FEW008



MET'MAP, your aeronautical weather chart ! - Copyright ORBIFLY December 2007 - Disclaimer

ORBIFLY MET'MAP TEAM :

Programming & Development : Alexandra Zaïnal
Concept & Development : Baudouin d'Aumeries
Co-Development & Prog : Marc-Olivier Méhu
Technical & hardware support : Manuel Goepfert

Contact : metmap@orbifly.com




SOURCES & CREDITS :

   NOAA